createdAt,value
2022-11-30T00:01:15.768Z,7.65
2022-11-30T00:03:43.245Z,7.50
2022-11-30T00:06:12.716Z,7.05
2022-11-30T00:08:39.897Z,7.32
2022-11-30T00:11:10.125Z,7.80
2022-11-30T00:13:37.221Z,8.30
2022-11-30T00:16:04.709Z,6.93
2022-11-30T00:18:31.832Z,8.43
2022-11-30T00:21:02.510Z,7.40
2022-11-30T00:23:36.624Z,7.97
2022-11-30T00:26:04.475Z,7.90
2022-11-30T00:28:32.279Z,8.27
2022-11-30T00:31:00.209Z,7.63
2022-11-30T00:33:27.373Z,6.82
2022-11-30T00:36:02.328Z,6.78
2022-11-30T00:38:29.535Z,6.75
2022-11-30T00:40:56.714Z,8.07
2022-11-30T00:43:23.960Z,6.30
2022-11-30T00:45:51.161Z,6.28
2022-11-30T00:48:18.357Z,7.57
2022-11-30T00:50:45.433Z,5.93
2022-11-30T00:53:12.514Z,5.90
2022-11-30T00:55:39.624Z,6.72
2022-11-30T00:58:07.410Z,7.30
2022-11-30T01:00:34.547Z,6.90
2022-11-30T01:03:02.836Z,7.95
2022-11-30T01:05:30.298Z,6.50
2022-11-30T01:08:00.066Z,6.60
2022-11-30T01:10:27.393Z,6.60
2022-11-30T01:12:54.878Z,7.40
2022-11-30T01:15:22.386Z,6.72
2022-11-30T01:17:49.664Z,6.57
2022-11-30T01:20:16.933Z,7.72
2022-11-30T01:22:44.341Z,6.78
2022-11-30T01:25:11.577Z,7.70
2022-11-30T01:27:38.801Z,6.55
2022-11-30T01:30:07.477Z,5.88
2022-11-30T01:32:34.563Z,6.70
2022-11-30T01:35:01.664Z,6.03
2022-11-30T01:37:30.075Z,6.22
2022-11-30T01:39:57.195Z,6.47
2022-11-30T01:42:24.658Z,6.47
2022-11-30T01:44:59.072Z,6.30
2022-11-30T01:47:29.233Z,6.97
2022-11-30T01:49:59.888Z,4.97
2022-11-30T01:52:29.774Z,6.13
2022-11-30T01:55:06.020Z,6.60
2022-11-30T01:57:37.596Z,6.53
2022-11-30T02:00:07.339Z,7.05
2022-11-30T02:02:44.070Z,6.43
2022-11-30T02:05:12.342Z,5.93
2022-11-30T02:07:39.803Z,5.82
2022-11-30T02:10:07.337Z,5.63
2022-11-30T02:12:37.508Z,6.28
2022-11-30T02:15:09.386Z,6.80
2022-11-30T02:17:52.545Z,6.90
2022-11-30T02:20:38.418Z,7.28
2022-11-30T02:23:16.259Z,6.05
2022-11-30T02:25:46.587Z,5.68
2022-11-30T02:28:16.535Z,5.70
2022-11-30T02:30:45.534Z,6.07
2022-11-30T02:33:14.352Z,6.82
2022-11-30T02:35:44.724Z,5.65
2022-11-30T02:38:12.541Z,5.45
2022-11-30T02:40:39.638Z,5.85
2022-11-30T02:43:07.726Z,5.93
2022-11-30T02:45:49.010Z,6.68
2022-11-30T02:50:48.246Z,6.07
2022-11-30T02:53:15.412Z,6.38
2022-11-30T02:55:42.538Z,5.22
2022-11-30T02:58:09.629Z,5.38
2022-11-30T03:00:37.097Z,5.47
2022-11-30T03:03:04.248Z,5.95
2022-11-30T03:05:31.438Z,6.35
2022-11-30T03:07:58.599Z,7.15
2022-11-30T03:10:25.668Z,6.03
2022-11-30T03:12:52.772Z,6.40
2022-11-30T03:15:19.903Z,5.68
2022-11-30T03:17:47.043Z,6.50
2022-11-30T03:20:15.583Z,5.75
2022-11-30T03:22:42.695Z,6.18
2022-11-30T03:25:10.008Z,6.32
2022-11-30T03:27:37.169Z,5.88
2022-11-30T03:30:04.633Z,5.80
2022-11-30T03:32:31.790Z,5.68
2022-11-30T03:34:58.885Z,5.85
2022-11-30T03:37:25.957Z,6.30
2022-11-30T03:39:57.984Z,5.85
2022-11-30T03:42:25.558Z,6.82
2022-11-30T03:44:52.667Z,7.15
2022-11-30T03:47:19.740Z,6.75
2022-11-30T03:49:46.830Z,6.30
2022-11-30T03:52:13.988Z,6.40
2022-11-30T03:54:41.068Z,5.88
2022-11-30T03:57:08.165Z,5.50
2022-11-30T03:59:35.325Z,5.55
2022-11-30T04:02:02.467Z,5.22
2022-11-30T04:04:29.620Z,6.40
2022-11-30T04:06:56.703Z,6.20
2022-11-30T04:09:24.048Z,6.05
2022-11-30T04:11:51.219Z,7.32
2022-11-30T04:14:18.381Z,5.75
2022-11-30T04:16:45.462Z,5.57
2022-11-30T04:19:12.589Z,8.25
2022-11-30T04:21:39.646Z,4.82
2022-11-30T04:24:06.990Z,7.22
2022-11-30T04:26:34.069Z,5.10
2022-11-30T04:29:04.303Z,6.43
2022-11-30T04:31:31.793Z,6.72
2022-11-30T04:33:58.987Z,6.30
2022-11-30T04:36:26.099Z,7.63
2022-11-30T04:38:53.210Z,5.82
2022-11-30T04:41:20.327Z,6.32
2022-11-30T04:43:47.436Z,6.15
2022-11-30T04:46:14.699Z,5.30
2022-11-30T04:48:41.830Z,6.40
2022-11-30T04:51:09.502Z,5.60
2022-11-30T04:53:37.448Z,5.88
2022-11-30T04:56:08.345Z,7.47
2022-11-30T04:58:35.624Z,6.05
2022-11-30T05:01:02.710Z,5.22
2022-11-30T05:03:29.795Z,6.53
2022-11-30T05:05:56.884Z,5.75
2022-11-30T05:08:24.420Z,5.40
2022-11-30T05:10:55.167Z,6.15
2022-11-30T05:13:23.172Z,4.88
2022-11-30T05:15:50.425Z,5.10
2022-11-30T05:18:17.760Z,5.63
2022-11-30T05:20:51.697Z,7.03
2022-11-30T05:23:19.138Z,5.95
2022-11-30T05:25:46.643Z,5.68
2022-11-30T05:28:13.939Z,6.15
2022-11-30T05:30:41.866Z,5.25
2022-11-30T05:33:09.060Z,7.32
2022-11-30T05:35:36.168Z,6.18
2022-11-30T05:38:03.575Z,6.10
2022-11-30T05:40:32.555Z,5.70
2022-11-30T05:45:29.377Z,6.72
2022-11-30T05:47:56.464Z,5.63
2022-11-30T05:50:23.597Z,5.15
2022-11-30T05:52:52.931Z,11.70
2022-11-30T05:55:20.006Z,5.25
2022-11-30T05:57:47.100Z,5.18
2022-11-30T06:00:14.635Z,6.07
2022-11-30T06:02:41.868Z,6.25
2022-11-30T06:05:09.820Z,4.40
2022-11-30T06:07:36.987Z,6.93
2022-11-30T06:10:04.629Z,5.85
2022-11-30T06:12:31.684Z,5.60
2022-11-30T06:14:58.769Z,5.22
2022-11-30T06:17:25.814Z,5.60
2022-11-30T06:19:52.908Z,5.05
2022-11-30T06:22:19.994Z,5.72
2022-11-30T06:24:47.449Z,4.68
2022-11-30T06:27:14.688Z,5.18
2022-11-30T06:29:41.881Z,4.93
2022-11-30T06:32:09.171Z,4.85
2022-11-30T06:34:36.333Z,5.97
2022-11-30T06:37:05.365Z,6.07
2022-11-30T06:40:04.680Z,4.18
2022-11-30T06:42:21.809Z,6.45
2022-11-30T06:44:49.614Z,5.53
2022-11-30T06:47:16.896Z,4.88
2022-11-30T06:49:44.006Z,5.13
2022-11-30T06:52:11.197Z,4.97
2022-11-30T06:54:38.265Z,4.68
2022-11-30T06:57:05.395Z,5.07
2022-11-30T06:59:32.547Z,4.60
2022-11-30T07:02:04.476Z,4.55
2022-11-30T07:04:35.294Z,5.68
2022-11-30T07:07:02.415Z,5.35
2022-11-30T07:09:29.614Z,4.82
2022-11-30T07:11:56.701Z,6.28
2022-11-30T07:14:23.782Z,8.13
2022-11-30T07:16:50.920Z,5.47
2022-11-30T07:19:18.179Z,6.72
2022-11-30T07:21:45.694Z,5.43
2022-11-30T07:24:31.753Z,4.07
2022-11-30T07:27:02.499Z,5.68
2022-11-30T07:29:29.694Z,5.28
2022-11-30T07:31:57.021Z,4.32
2022-11-30T07:34:24.173Z,4.38
2022-11-30T07:36:51.433Z,4.90
2022-11-30T07:39:18.584Z,4.90
2022-11-30T07:41:46.153Z,6.10
2022-11-30T07:44:13.353Z,4.70
2022-11-30T07:46:40.441Z,4.85
2022-11-30T07:49:09.361Z,5.00
2022-11-30T07:51:37.074Z,5.00
2022-11-30T07:54:04.309Z,4.10
2022-11-30T07:56:31.851Z,4.53
2022-11-30T07:59:00.018Z,5.95
2022-11-30T08:01:29.121Z,4.53
2022-11-30T08:03:56.806Z,5.85
2022-11-30T08:06:25.490Z,4.75
2022-11-30T08:08:53.653Z,4.60
2022-11-30T08:11:24.901Z,4.80
2022-11-30T08:13:52.613Z,4.60
2022-11-30T08:16:21.099Z,4.78
2022-11-30T08:18:48.384Z,4.88
2022-11-30T08:21:16.896Z,4.65
2022-11-30T08:23:45.375Z,4.57
2022-11-30T08:26:13.950Z,4.90
2022-11-30T08:28:41.609Z,4.45
2022-11-30T08:31:10.442Z,5.10
2022-11-30T08:33:37.939Z,4.82
2022-11-30T08:36:08.034Z,5.45
2022-11-30T08:38:35.432Z,5.55
2022-11-30T08:41:02.788Z,5.57
2022-11-30T08:43:29.984Z,4.57
2022-11-30T08:45:57.575Z,3.80
2022-11-30T08:48:24.958Z,5.45
2022-11-30T08:50:52.054Z,4.95
2022-11-30T08:53:19.226Z,4.50
2022-11-30T08:55:58.918Z,4.40
2022-11-30T08:58:26.574Z,4.60
2022-11-30T09:00:53.860Z,4.78
2022-11-30T09:03:21.217Z,4.32
2022-11-30T09:05:48.325Z,4.47
2022-11-30T09:08:15.530Z,5.50
2022-11-30T09:10:42.689Z,4.32
2022-11-30T09:13:09.798Z,4.60
2022-11-30T09:15:36.907Z,5.72
2022-11-30T09:18:04.067Z,4.88
2022-11-30T09:20:31.198Z,6.30
2022-11-30T09:23:00.309Z,4.53
2022-11-30T09:25:27.450Z,4.55
2022-11-30T09:27:54.526Z,4.95
2022-11-30T09:30:21.729Z,4.50
2022-11-30T09:32:48.860Z,5.22
2022-11-30T09:35:16.029Z,4.10
2022-11-30T09:37:43.210Z,4.30
2022-11-30T09:40:11.263Z,4.43
2022-11-30T09:42:49.781Z,4.78
2022-11-30T09:45:28.975Z,4.55
2022-11-30T09:48:03.304Z,5.97
2022-11-30T09:50:32.822Z,5.00
2022-11-30T09:53:03.062Z,4.50
2022-11-30T09:55:43.852Z,5.65
2022-11-30T09:58:34.404Z,3.97
2022-11-30T10:01:06.711Z,6.28
2022-11-30T10:03:34.620Z,4.82
2022-11-30T10:06:13.166Z,5.65
2022-11-30T10:08:47.405Z,4.10
2022-11-30T10:11:20.311Z,4.05
2022-11-30T10:13:56.526Z,4.63
2022-11-30T10:16:33.125Z,4.47
2022-11-30T10:19:05.456Z,4.03
2022-11-30T10:21:32.589Z,4.85
2022-11-30T10:24:09.315Z,4.43
2022-11-30T10:26:38.366Z,4.82
2022-11-30T10:29:15.414Z,4.82
2022-11-30T10:31:43.279Z,4.20
2022-11-30T10:34:13.680Z,4.80
2022-11-30T10:36:42.534Z,4.60
2022-11-30T10:39:31.352Z,4.95
2022-11-30T10:42:05.702Z,5.82
2022-11-30T10:44:34.598Z,5.00
2022-11-30T10:47:12.851Z,4.82
2022-11-30T10:49:42.616Z,5.07
2022-11-30T10:52:09.891Z,4.18
2022-11-30T10:54:37.631Z,4.60
2022-11-30T10:57:05.565Z,6.45
2022-11-30T10:59:45.841Z,4.60
2022-11-30T11:02:34.465Z,4.47
2022-11-30T11:05:18.691Z,5.05
2022-11-30T11:08:01.289Z,4.50
2022-11-30T11:10:52.073Z,4.65
2022-11-30T11:15:57.148Z,5.25
2022-11-30T11:18:28.973Z,3.85
2022-11-30T11:21:06.708Z,4.65
2022-11-30T11:23:35.656Z,4.45
2022-11-30T11:26:03.129Z,4.53
2022-11-30T11:28:30.297Z,4.70
2022-11-30T11:30:58.361Z,5.18
2022-11-30T11:33:27.018Z,4.82
2022-11-30T11:36:14.065Z,5.13
2022-11-30T11:38:48.565Z,4.60
2022-11-30T11:41:15.755Z,4.55
2022-11-30T11:44:01.622Z,4.63
2022-11-30T11:46:29.984Z,3.95
2022-11-30T11:49:02.033Z,4.43
2022-11-30T11:51:34.020Z,5.25
2022-11-30T11:54:09.945Z,4.38
2022-11-30T11:56:37.874Z,4.80
2022-11-30T11:59:08.005Z,5.65
2022-11-30T12:01:44.175Z,4.95
2022-11-30T12:04:30.098Z,4.63
2022-11-30T12:06:58.731Z,4.97
2022-11-30T12:09:29.156Z,4.82
2022-11-30T12:11:56.258Z,4.78
2022-11-30T12:14:23.465Z,4.20
2022-11-30T12:17:13.609Z,5.00
2022-11-30T12:19:59.156Z,4.50
2022-11-30T12:22:41.430Z,4.30
2022-11-30T12:25:28.481Z,5.18
2022-11-30T12:28:01.321Z,5.00
2022-11-30T12:30:46.124Z,4.82
2022-11-30T12:33:32.609Z,7.10
2022-11-30T12:36:03.169Z,4.68
2022-11-30T12:38:49.611Z,4.40
2022-11-30T12:41:16.710Z,5.50
2022-11-30T12:43:49.558Z,4.55
2022-11-30T12:46:16.694Z,5.40
2022-11-30T12:49:09.654Z,4.72
2022-11-30T12:51:36.771Z,5.00
2022-11-30T12:54:16.244Z,5.20
2022-11-30T12:57:06.486Z,4.90
2022-11-30T12:59:40.625Z,5.53
2022-11-30T13:02:20.160Z,5.03
2022-11-30T13:04:57.756Z,5.00
2022-11-30T13:07:44.700Z,4.90
2022-11-30T13:10:27.278Z,5.60
2022-11-30T13:12:55.725Z,4.80
2022-11-30T13:15:24.371Z,4.57
2022-11-30T13:17:52.144Z,5.03
2022-11-30T13:20:24.497Z,4.78
2022-11-30T13:22:55.171Z,4.97
2022-11-30T13:28:43.844Z,4.85
2022-11-30T13:31:15.367Z,4.57
2022-11-30T13:34:08.711Z,4.18
2022-11-30T13:36:40.300Z,5.47
2022-11-30T13:39:26.851Z,5.28
2022-11-30T13:42:02.842Z,6.03
2022-11-30T13:44:29.949Z,5.45
2022-11-30T13:46:57.603Z,5.72
2022-11-30T13:49:28.972Z,5.80
2022-11-30T13:52:21.644Z,4.28
2022-11-30T13:54:45.694Z,6.72
2022-11-30T13:57:25.019Z,5.47
2022-11-30T13:59:58.983Z,5.28
2022-11-30T14:02:41.676Z,4.93
2022-11-30T14:05:17.828Z,5.35
2022-11-30T14:08:05.187Z,5.15
2022-11-30T14:13:03.924Z,5.22
2022-11-30T14:15:41.011Z,4.93
2022-11-30T14:18:08.240Z,5.63
2022-11-30T14:20:38.267Z,4.65
2022-11-30T14:23:11.493Z,4.82
2022-11-30T14:25:42.254Z,6.63
2022-11-30T14:28:11.782Z,4.95
2022-11-30T14:30:41.886Z,4.70
2022-11-30T14:33:19.826Z,4.38
2022-11-30T14:35:51.441Z,5.95
2022-11-30T14:38:30.742Z,4.50
2022-11-30T14:40:58.830Z,4.22
2022-11-30T14:43:26.740Z,5.68
2022-11-30T14:46:03.031Z,4.25
2022-11-30T14:48:32.544Z,5.22
2022-11-30T14:51:02.776Z,5.15
2022-11-30T14:53:41.794Z,4.53
2022-11-30T14:56:14.964Z,4.55
2022-11-30T14:58:58.662Z,6.22
2022-11-30T15:01:27.420Z,5.18
2022-11-30T15:03:56.251Z,4.55
2022-11-30T15:06:27.639Z,5.93
2022-11-30T15:08:56.213Z,5.63
2022-11-30T15:11:23.557Z,6.72
2022-11-30T15:13:53.888Z,4.68
2022-11-30T15:16:31.121Z,4.88
2022-11-30T15:18:59.391Z,4.20
2022-11-30T15:21:27.841Z,4.40
2022-11-30T15:23:55.689Z,4.65
2022-11-30T15:26:25.739Z,4.93
2022-11-30T15:28:58.425Z,4.55
2022-11-30T15:31:28.914Z,5.80
2022-11-30T15:33:56.097Z,4.22
2022-11-30T15:36:32.965Z,4.97
2022-11-30T15:39:03.341Z,4.80
2022-11-30T15:41:30.618Z,5.13
2022-11-30T15:43:58.408Z,5.15
2022-11-30T15:46:47.627Z,4.82
2022-11-30T15:49:17.803Z,5.32
2022-11-30T15:51:58.766Z,4.57
2022-11-30T15:54:46.994Z,5.57
2022-11-30T15:57:14.838Z,5.22
2022-11-30T15:59:49.465Z,5.40
2022-11-30T16:02:28.421Z,4.72
2022-11-30T16:04:59.338Z,6.05
2022-11-30T16:07:29.459Z,6.00
2022-11-30T16:10:21.769Z,5.72
2022-11-30T16:12:50.450Z,6.85
2022-11-30T16:15:24.962Z,7.10
2022-11-30T16:17:52.936Z,7.05
2022-11-30T16:20:21.107Z,5.43
2022-11-30T16:22:48.859Z,9.68
2022-11-30T16:25:16.957Z,5.30
2022-11-30T16:27:47.653Z,5.60
2022-11-30T16:30:16.444Z,5.90
2022-11-30T16:32:44.054Z,6.75
2022-11-30T16:35:30.339Z,5.57
2022-11-30T16:37:57.557Z,6.45
2022-11-30T16:40:24.782Z,9.02
2022-11-30T16:42:52.208Z,6.40
2022-11-30T16:45:23.445Z,5.82
2022-11-30T16:47:51.105Z,6.43
2022-11-30T16:50:18.758Z,5.63
2022-11-30T16:52:45.990Z,7.30
2022-11-30T16:55:17.528Z,10.50
2022-11-30T16:57:45.041Z,6.60
2022-11-30T17:00:18.207Z,6.13
2022-11-30T17:02:56.779Z,7.13
2022-11-30T17:05:24.145Z,5.53
2022-11-30T17:07:51.285Z,6.53
2022-11-30T17:10:18.659Z,5.57
2022-11-30T17:12:46.022Z,7.10
2022-11-30T17:15:21.123Z,5.65
2022-11-30T17:17:48.821Z,5.70
2022-11-30T17:20:16.818Z,7.10
2022-11-30T17:22:44.152Z,5.90
2022-11-30T17:25:18.596Z,6.70
2022-11-30T17:27:45.924Z,5.90
2022-11-30T17:30:14.569Z,7.25
2022-11-30T17:32:41.809Z,7.20
2022-11-30T17:35:09.262Z,6.90
2022-11-30T17:37:36.512Z,6.20
2022-11-30T17:40:05.025Z,6.47
2022-11-30T17:42:32.387Z,6.15
2022-11-30T17:44:59.778Z,6.75
2022-11-30T17:47:26.895Z,5.60
2022-11-30T17:49:54.007Z,6.25
2022-11-30T17:52:21.128Z,11.45
2022-11-30T17:54:48.497Z,6.70
2022-11-30T17:57:15.837Z,6.22
2022-11-30T17:59:42.957Z,6.60
2022-11-30T18:02:11.823Z,7.40
2022-11-30T18:07:06.831Z,8.07
2022-11-30T18:09:37.967Z,7.70
2022-11-30T18:12:09.872Z,8.20
2022-11-30T18:14:37.040Z,10.50
2022-11-30T18:17:04.352Z,7.55
2022-11-30T18:19:31.517Z,10.52
2022-11-30T18:21:58.637Z,9.90
2022-11-30T18:24:26.100Z,8.98
2022-11-30T18:26:53.568Z,10.63
2022-11-30T18:29:20.631Z,10.57
2022-11-30T18:31:51.381Z,10.13
2022-11-30T18:34:18.595Z,8.85
2022-11-30T18:36:45.747Z,9.30
2022-11-30T18:39:12.860Z,12.27
2022-11-30T18:41:40.002Z,12.40
2022-11-30T18:44:07.115Z,10.18
2022-11-30T18:46:34.371Z,11.88
2022-11-30T18:49:01.857Z,10.65
2022-11-30T18:51:30.254Z,8.35
2022-11-30T18:54:01.512Z,8.18
2022-11-30T18:56:30.419Z,7.53
2022-11-30T19:01:25.888Z,9.38
2022-11-30T19:03:54.032Z,7.90
2022-11-30T19:06:21.328Z,7.53
2022-11-30T19:08:48.819Z,8.80
2022-11-30T19:11:16.489Z,7.30
2022-11-30T19:13:44.154Z,11.18
2022-11-30T19:16:17.599Z,8.65
2022-11-30T19:18:47.690Z,6.40
2022-11-30T19:21:19.246Z,8.82
2022-11-30T19:23:46.437Z,6.82
2022-11-30T19:26:14.220Z,8.00
2022-11-30T19:28:42.682Z,6.70
2022-11-30T19:31:20.229Z,6.65
2022-11-30T19:33:48.563Z,8.30
2022-11-30T19:36:17.237Z,7.05
2022-11-30T19:38:44.386Z,8.80
2022-11-30T19:41:12.665Z,8.15
2022-11-30T19:43:40.306Z,9.07
2022-11-30T19:46:11.613Z,8.85
2022-11-30T19:48:39.019Z,8.52
2022-11-30T19:51:14.833Z,9.60
2022-11-30T19:53:45.255Z,7.90
2022-11-30T19:56:13.890Z,8.48
2022-11-30T19:58:41.658Z,8.00
2022-11-30T20:01:12.492Z,8.10
2022-11-30T20:03:39.674Z,8.50
2022-11-30T20:06:06.888Z,7.60
2022-11-30T20:08:34.065Z,9.45
2022-11-30T20:11:01.174Z,8.20
2022-11-30T20:13:30.744Z,8.65
2022-11-30T20:15:57.838Z,7.90
2022-11-30T20:18:25.022Z,9.32
2022-11-30T20:20:52.149Z,9.32
2022-11-30T20:23:19.291Z,7.85
2022-11-30T20:25:46.363Z,7.40
2022-11-30T20:28:13.506Z,7.05
2022-11-30T20:30:42.716Z,8.05
2022-11-30T20:33:09.880Z,7.65
2022-11-30T20:35:37.034Z,7.18
2022-11-30T20:38:04.173Z,7.50
2022-11-30T20:40:31.265Z,8.18
2022-11-30T20:42:58.368Z,6.60
2022-11-30T20:45:25.515Z,7.95
2022-11-30T20:47:52.638Z,9.35
2022-11-30T20:50:19.716Z,7.68
2022-11-30T20:52:46.824Z,8.75
2022-11-30T20:55:14.081Z,7.18
2022-11-30T20:57:41.165Z,7.85
2022-11-30T21:00:13.056Z,8.55
2022-11-30T21:02:40.588Z,7.90
2022-11-30T21:05:07.893Z,7.78
2022-11-30T21:07:35.114Z,8.52
2022-11-30T21:10:02.267Z,6.50
2022-11-30T21:12:29.373Z,7.65
2022-11-30T21:14:56.528Z,7.65
2022-11-30T21:17:23.629Z,8.20
2022-11-30T21:19:50.792Z,8.15
2022-11-30T21:22:17.922Z,6.60
2022-11-30T21:24:45.176Z,7.18
2022-11-30T21:27:12.442Z,7.05
2022-11-30T21:29:39.572Z,8.00
2022-11-30T21:32:06.710Z,6.35
2022-11-30T21:34:33.886Z,8.35
2022-11-30T21:37:00.978Z,6.82
2022-11-30T21:39:28.090Z,7.03
2022-11-30T21:41:56.827Z,7.30
2022-11-30T21:44:23.976Z,7.80
2022-11-30T21:46:51.737Z,8.98
2022-11-30T21:49:18.900Z,8.00
2022-11-30T21:51:46.117Z,7.65
2022-11-30T21:54:13.729Z,7.68
2022-11-30T21:56:42.617Z,8.85
2022-11-30T21:59:09.822Z,7.65
2022-11-30T22:01:41.628Z,7.45
2022-11-30T22:04:10.260Z,6.53
2022-11-30T22:06:38.259Z,7.53
2022-11-30T22:09:10.056Z,6.80
2022-11-30T22:11:41.677Z,8.80
2022-11-30T22:14:11.928Z,9.25
2022-11-30T22:16:39.098Z,6.90
2022-11-30T22:19:07.167Z,6.82
2022-11-30T22:21:34.610Z,6.43
2022-11-30T22:24:03.218Z,6.47
2022-11-30T22:26:40.626Z,7.30
2022-11-30T22:29:09.101Z,7.55
2022-11-30T22:31:37.480Z,8.30
2022-11-30T22:34:05.132Z,7.38
2022-11-30T22:36:33.030Z,6.15
2022-11-30T22:39:05.193Z,7.28
2022-11-30T22:41:32.510Z,6.88
2022-11-30T22:44:00.130Z,8.13
2022-11-30T22:46:31.236Z,7.15
2022-11-30T22:49:02.744Z,7.13
2022-11-30T22:51:30.980Z,7.45
2022-11-30T22:53:58.499Z,8.27
2022-11-30T22:56:31.327Z,8.38
2022-11-30T22:59:00.527Z,6.78
2022-11-30T23:01:28.922Z,6.50
2022-11-30T23:03:56.804Z,6.43
2022-11-30T23:06:24.690Z,8.43
2022-11-30T23:08:52.847Z,8.48
2022-11-30T23:11:21.184Z,6.95
2022-11-30T23:13:48.380Z,8.80
2022-11-30T23:16:16.166Z,6.68
2022-11-30T23:18:50.789Z,7.00
2022-11-30T23:21:19.968Z,7.05
2022-11-30T23:23:47.595Z,7.55
2022-11-30T23:26:21.967Z,8.48
2022-11-30T23:28:50.849Z,7.22
2022-11-30T23:31:32.513Z,6.63
2022-11-30T23:34:02.454Z,8.82
2022-11-30T23:36:29.628Z,6.93
2022-11-30T23:39:04.534Z,6.88
2022-11-30T23:41:31.879Z,8.88
2022-11-30T23:43:59.028Z,7.47
2022-11-30T23:46:26.572Z,8.13
2022-11-30T23:48:55.580Z,7.68
2022-11-30T23:53:49.752Z,6.57
2022-11-30T23:56:17.852Z,8.40
2022-11-30T23:58:45.281Z,7.40
